Sao Joao d'Alianca, Brazil
Current Conditions -  °F | °C
As of 11:00 AM on Friday 24 Oct 2014 (Local Time) from SBBR Reporting Station
Broken Clouds Broken Clouds  
Wind Chill: 79°   Ceiling: 10000
Heat Index: 80°   Visibility: 6mi
Dew Point: 57°   Wind: 15mph
Humidity: 47%   Direction: 50°NE
Pressure: 30.15"   Gusts: NA
Location:  14.71°S, 47.52°W
Report Text: SBBR 241300Z 05013KT 9999 FEW040 BKN100 26/14 Q1021
Loading
Personal Weather Stations






























Interactive Weather Map
Tropical Storm Tracking
New forecast layout! Learn more

10-Day Weather Forecast

Advertisements
Track Severe Weather on mobile